sensor_id;sensor_type;location;lat;lon;timestamp;temperature;humidity
18191;DHT22;47004;51.366;12.348;2023-03-01T00:00:38;-1.70;99.90
18191;DHT22;47004;51.366;12.348;2023-03-01T00:02:40;-1.70;99.90
18191;DHT22;47004;51.366;12.348;2023-03-01T00:04:42;-1.70;99.90
18191;DHT22;47004;51.366;12.348;2023-03-01T00:06:43;-1.70;99.90
18191;DHT22;47004;51.366;12.348;2023-03-01T00:08:47;-1.70;99.90
18191;DHT22;47004;51.366;12.348;2023-03-01T00:10:49;-1.70;99.90
18191;DHT22;47004;51.366;12.348;2023-03-01T00:12:51;-1.80;99.90
18191;DHT22;47004;51.366;12.348;2023-03-01T00:14:53;-1.80;99.90
18191;DHT22;47004;51.366;12.348;2023-03-01T00:16:56;-1.80;99.90
18191;DHT22;47004;51.366;12.348;2023-03-01T00:18:59;-1.80;99.90
18191;DHT22;47004;51.366;12.348;2023-03-01T00:21:01;-1.80;99.90
18191;DHT22;47004;51.366;12.348;2023-03-01T00:23:03;-1.80;99.90
18191;DHT22;47004;51.366;12.348;2023-03-01T00:25:05;-1.80;99.90
18191;DHT22;47004;51.366;12.348;2023-03-01T00:27:07;-1.80;99.90
18191;DHT22;47004;51.366;12.348;2023-03-01T00:29:09;-1.80;99.90
18191;DHT22;47004;51.366;12.348;2023-03-01T00:31:12;-1.80;99.90
18191;DHT22;47004;51.366;12.348;2023-03-01T00:33:16;-1.80;99.90
18191;DHT22;47004;51.366;12.348;2023-03-01T00:35:18;-1.80;99.90
18191;DHT22;47004;51.366;12.348;2023-03-01T00:37:20;-1.80;99.90
18191;DHT22;47004;51.366;12.348;2023-03-01T00:39:22;-1.90;99.90
18191;DHT22;47004;51.366;12.348;2023-03-01T00:41:24;-1.90;99.90
18191;DHT22;47004;51.366;12.348;2023-03-01T00:43:27;-1.90;99.90
18191;DHT22;47004;51.366;12.348;2023-03-01T00:45:32;-1.90;99.90
18191;DHT22;47004;51.366;12.348;2023-03-01T00:47:34;-1.90;99.90
18191;DHT22;47004;51.366;12.348;2023-03-01T00:49:38;-1.90;99.90
18191;DHT22;47004;51.366;12.348;2023-03-01T00:51:39;-1.90;99.90
18191;DHT22;47004;51.366;12.348;2023-03-01T00:53:42;-1.90;99.90
18191;DHT22;47004;51.366;12.348;2023-03-01T00:55:44;-2.00;99.90
18191;DHT22;47004;51.366;12.348;2023-03-01T00:57:46;-2.00;99.90
18191;DHT22;47004;51.366;12.348;2023-03-01T00:59:48;-2.00;99.90
18191;DHT22;47004;51.366;12.348;2023-03-01T01:01:50;-2.00;99.90
18191;DHT22;47004;51.366;12.348;2023-03-01T01:03:54;-2.00;99.90
18191;DHT22;47004;51.366;12.348;2023-03-01T01:05:57;-2.00;99.90
18191;DHT22;47004;51.366;12.348;2023-03-01T01:07:59;-2.10;99.90
18191;DHT22;47004;51.366;12.348;2023-03-01T01:10:01;-2.10;99.90
18191;DHT22;47004;51.366;12.348;2023-03-01T01:12:04;-2.10;99.90
18191;DHT22;47004;51.366;12.348;2023-03-01T01:14:06;-2.10;99.90
18191;DHT22;47004;51.366;12.348;2023-03-01T01:16:08;-2.10;99.90
18191;DHT22;47004;51.366;12.348;2023-03-01T01:18:10;-2.10;99.90
18191;DHT22;47004;51.366;12.348;2023-03-01T01:20:12;-2.10;99.90
18191;DHT22;47004;51.366;12.348;2023-03-01T01:22:15;-2.20;99.90
18191;DHT22;47004;51.366;12.348;2023-03-01T01:24:17;-2.20;99.90
18191;DHT22;47004;51.366;12.348;2023-03-01T01:26:21;-2.20;99.90
18191;DHT22;47004;51.366;12.348;2023-03-01T01:28:23;-2.20;99.90
18191;DHT22;47004;51.366;12.348;2023-03-01T01:30:25;-2.10;99.90
18191;DHT22;47004;51.366;12.348;2023-03-01T01:32:28;-2.20;99.90
18191;DHT22;47004;51.366;12.348;2023-03-01T01:34:30;-2.20;99.90
18191;DHT22;47004;51.366;12.348;2023-03-01T01:36:33;-2.20;99.90
18191;DHT22;47004;51.366;12.348;2023-03-01T01:38:37;-2.20;99.90
18191;DHT22;47004;51.366;12.348;2023-03-01T01:40:43;-2.20;99.90
18191;DHT22;47004;51.366;12.348;2023-03-01T01:42:45;-2.30;99.90
18191;DHT22;47004;51.366;12.348;2023-03-01T01:44:48;-2.30;99.90
18191;DHT22;47004;51.366;12.348;2023-03-01T01:46:53;-2.10;99.90
18191;DHT22;47004;51.366;12.348;2023-03-01T01:48:58;-2.30;99.90
18191;DHT22;47004;51.366;12.348;2023-03-01T01:51:02;-2.30;99.90
18191;DHT22;47004;51.366;12.348;2023-03-01T01:53:08;-2.30;99.90
18191;DHT22;47004;51.366;12.348;2023-03-01T01:55:15;-2.40;99.90
18191;DHT22;47004;51.366;12.348;2023-03-01T01:57:20;-2.30;99.90
18191;DHT22;47004;51.366;12.348;2023-03-01T01:59:23;-2.40;99.90
18191;DHT22;47004;51.366;12.348;2023-03-01T02:01:26;-2.40;99.90
18191;DHT22;47004;51.366;12.348;2023-03-01T02:03:31;-2.40;99.90
18191;DHT22;47004;51.366;12.348;2023-03-01T02:05:42;-2.40;99.90
18191;DHT22;47004;51.366;12.348;2023-03-01T02:07:45;-2.50;99.90
18191;DHT22;47004;51.366;12.348;2023-03-01T02:09:50;-2.50;99.90
18191;DHT22;47004;51.366;12.348;2023-03-01T02:11:54;-2.50;99.90
18191;DHT22;47004;51.366;12.348;2023-03-01T02:13:56;-2.50;99.90
18191;DHT22;47004;51.366;12.348;2023-03-01T02:15:58;-2.50;99.90
18191;DHT22;47004;51.366;12.348;2023-03-01T02:18:02;-2.50;99.90
18191;DHT22;47004;51.366;12.348;2023-03-01T02:20:12;-2.50;99.90
18191;DHT22;47004;51.366;12.348;2023-03-01T02:22:22;-2.50;99.90
18191;DHT22;47004;51.366;12.348;2023-03-01T02:24:28;-2.60;99.90
18191;DHT22;47004;51.366;12.348;2023-03-01T02:26:39;-2.70;99.90
18191;DHT22;47004;51.366;12.348;2023-03-01T02:28:43;-2.60;99.90
18191;DHT22;47004;51.366;12.348;2023-03-01T02:30:47;-2.60;99.90
18191;DHT22;47004;51.366;12.348;2023-03-01T02:33:04;-2.60;99.90
18191;DHT22;47004;51.366;12.348;2023-03-01T02:35:07;-2.60;99.90
18191;DHT22;47004;51.366;12.348;2023-03-01T02:37:13;-2.70;99.90
18191;DHT22;47004;51.366;12.348;2023-03-01T02:39:25;-2.70;99.90
18191;DHT22;47004;51.366;12.348;2023-03-01T02:41:38;-2.70;99.90
18191;DHT22;47004;51.366;12.348;2023-03-01T02:43:42;-2.70;99.90
18191;DHT22;47004;51.366;12.348;2023-03-01T02:45:48;-2.70;99.90
18191;DHT22;47004;51.366;12.348;2023-03-01T02:47:53;-2.70;99.90
18191;DHT22;47004;51.366;12.348;2023-03-01T02:49:55;-2.70;99.90
18191;DHT22;47004;51.366;12.348;2023-03-01T02:52:10;-2.70;99.90
18191;DHT22;47004;51.366;12.348;2023-03-01T02:54:22;-2.80;99.90
18191;DHT22;47004;51.366;12.348;2023-03-01T02:56:27;-2.80;99.90
18191;DHT22;47004;51.366;12.348;2023-03-01T02:58:29;-2.80;99.90
18191;DHT22;47004;51.366;12.348;2023-03-01T03:00:37;-2.80;99.90
18191;DHT22;47004;51.366;12.348;2023-03-01T03:02:40;-2.80;99.90
18191;DHT22;47004;51.366;12.348;2023-03-01T03:04:42;-2.80;99.90
18191;DHT22;47004;51.366;12.348;2023-03-01T03:06:44;-2.80;99.90
18191;DHT22;47004;51.366;12.348;2023-03-01T03:08:47;-2.90;99.90
18191;DHT22;47004;51.366;12.348;2023-03-01T03:10:49;-2.90;99.90
18191;DHT22;47004;51.366;12.348;2023-03-01T03:12:52;-2.90;99.90
18191;DHT22;47004;51.366;12.348;2023-03-01T03:14:54;-2.90;99.90
18191;DHT22;47004;51.366;12.348;2023-03-01T03:16:57;-2.90;99.90
18191;DHT22;47004;51.366;12.348;2023-03-01T03:18:59;-2.90;99.90
18191;DHT22;47004;51.366;12.348;2023-03-01T03:21:07;-2.90;99.90
18191;DHT22;47004;51.366;12.348;2023-03-01T03:23:11;-2.90;99.90
18191;DHT22;47004;51.366;12.348;2023-03-01T03:25:14;-2.90;99.90
18191;DHT22;47004;51.366;12.348;2023-03-01T03:27:16;-2.90;99.90
18191;DHT22;47004;51.366;12.348;2023-03-01T03:29:18;-3.00;99.90
18191;DHT22;47004;51.366;12.348;2023-03-01T03:31:20;-3.00;99.90
18191;DHT22;47004;51.366;12.348;2023-03-01T03:33:23;-3.00;99.90
18191;DHT22;47004;51.366;12.348;2023-03-01T03:35:27;-3.00;99.90
18191;DHT22;47004;51.366;12.348;2023-03-01T03:37:30;-3.00;99.90
18191;DHT22;47004;51.366;12.348;2023-03-01T03:39:49;-3.00;99.90
18191;DHT22;47004;51.366;12.348;2023-03-01T03:41:55;-3.00;99.90
18191;DHT22;47004;51.366;12.348;2023-03-01T03:43:57;-3.10;99.90
18191;DHT22;47004;51.366;12.348;2023-03-01T03:45:59;-3.10;99.90
18191;DHT22;47004;51.366;12.348;2023-03-01T03:48:05;-3.10;99.90
18191;DHT22;47004;51.366;12.348;2023-03-01T03:50:09;-3.10;99.90
18191;DHT22;47004;51.366;12.348;2023-03-01T03:52:13;-3.10;99.90
18191;DHT22;47004;51.366;12.348;2023-03-01T03:54:15;-3.10;99.90
18191;DHT22;47004;51.366;12.348;2023-03-01T03:56:18;-3.10;99.90
18191;DHT22;47004;51.366;12.348;2023-03-01T03:58:22;-3.10;99.90
18191;DHT22;47004;51.366;12.348;2023-03-01T04:00:24;-3.10;99.90
18191;DHT22;47004;51.366;12.348;2023-03-01T04:02:26;-3.10;99.90
18191;DHT22;47004;51.366;12.348;2023-03-01T04:04:28;-3.20;99.90
18191;DHT22;47004;51.366;12.348;2023-03-01T04:06:32;-3.20;99.90
18191;DHT22;47004;51.366;12.348;2023-03-01T04:08:33;-3.20;99.90
18191;DHT22;47004;51.366;12.348;2023-03-01T04:10:37;-3.20;99.90
18191;DHT22;47004;51.366;12.348;2023-03-01T04:12:40;-3.20;99.90
18191;DHT22;47004;51.366;12.348;2023-03-01T04:14:43;-3.20;99.90
18191;DHT22;47004;51.366;12.348;2023-03-01T04:16:45;-3.20;99.90
18191;DHT22;47004;51.366;12.348;2023-03-01T04:18:47;-3.20;99.90
18191;DHT22;47004;51.366;12.348;2023-03-01T04:20:49;-3.30;99.90
18191;DHT22;47004;51.366;12.348;2023-03-01T04:23:00;-3.30;99.90
18191;DHT22;47004;51.366;12.348;2023-03-01T04:25:10;-3.00;99.90
18191;DHT22;47004;51.366;12.348;2023-03-01T04:27:14;-3.30;99.90
18191;DHT22;47004;51.366;12.348;2023-03-01T04:29:16;-3.30;99.90
18191;DHT22;47004;51.366;12.348;2023-03-01T04:31:19;-3.30;99.90
18191;DHT22;47004;51.366;12.348;2023-03-01T04:33:22;-3.30;99.90
18191;DHT22;47004;51.366;12.348;2023-03-01T04:35:24;-3.30;99.90
18191;DHT22;47004;51.366;12.348;2023-03-01T04:37:26;-3.30;99.90
18191;DHT22;47004;51.366;12.348;2023-03-01T04:39:29;-3.30;99.90
18191;DHT22;47004;51.366;12.348;2023-03-01T04:41:33;-3.30;99.90
18191;DHT22;47004;51.366;12.348;2023-03-01T04:43:35;-3.30;99.90
18191;DHT22;47004;51.366;12.348;2023-03-01T04:45:37;-3.30;99.90
18191;DHT22;47004;51.366;12.348;2023-03-01T04:47:43;-3.30;99.90
18191;DHT22;47004;51.366;12.348;2023-03-01T04:49:46;-2.90;99.90
18191;DHT22;47004;51.366;12.348;2023-03-01T04:51:48;-3.30;99.90
18191;DHT22;47004;51.366;12.348;2023-03-01T04:53:50;-3.30;99.90
18191;DHT22;47004;51.366;12.348;2023-03-01T04:55:54;-3.30;99.90
18191;DHT22;47004;51.366;12.348;2023-03-01T04:57:56;-3.30;99.90
18191;DHT22;47004;51.366;12.348;2023-03-01T04:59:58;-3.30;99.90
18191;DHT22;47004;51.366;12.348;2023-03-01T05:02:00;-3.30;99.90
18191;DHT22;47004;51.366;12.348;2023-03-01T05:04:02;-3.30;99.90
18191;DHT22;47004;51.366;12.348;2023-03-01T05:06:05;-3.30;99.90
18191;DHT22;47004;51.366;12.348;2023-03-01T05:08:08;-3.30;99.90
18191;DHT22;47004;51.366;12.348;2023-03-01T05:10:17;-3.30;99.90
18191;DHT22;47004;51.366;12.348;2023-03-01T05:12:21;-3.30;99.90
18191;DHT22;47004;51.366;12.348;2023-03-01T05:14:23;-3.30;99.90
18191;DHT22;47004;51.366;12.348;2023-03-01T05:16:25;-3.30;99.90
18191;DHT22;47004;51.366;12.348;2023-03-01T05:18:28;-3.30;99.90
18191;DHT22;47004;51.366;12.348;2023-03-01T05:20:31;-3.30;99.90
18191;DHT22;47004;51.366;12.348;2023-03-01T05:22:32;-3.40;99.90
18191;DHT22;47004;51.366;12.348;2023-03-01T05:24:35;-3.30;99.90
18191;DHT22;47004;51.366;12.348;2023-03-01T05:26:39;-3.40;99.90
18191;DHT22;47004;51.366;12.348;2023-03-01T05:28:43;-3.40;99.90
18191;DHT22;47004;51.366;12.348;2023-03-01T05:30:45;-3.40;99.90
18191;DHT22;47004;51.366;12.348;2023-03-01T05:32:49;-3.40;99.90
18191;DHT22;47004;51.366;12.348;2023-03-01T05:34:56;-3.40;99.90
18191;DHT22;47004;51.366;12.348;2023-03-01T05:36:58;-3.50;99.90
18191;DHT22;47004;51.366;12.348;2023-03-01T05:39:00;-3.50;99.90
18191;DHT22;47004;51.366;12.348;2023-03-01T05:41:02;-3.50;99.90
18191;DHT22;47004;51.366;12.348;2023-03-01T05:43:04;-3.50;99.90
18191;DHT22;47004;51.366;12.348;2023-03-01T05:45:09;-3.50;99.90
18191;DHT22;47004;51.366;12.348;2023-03-01T05:47:12;-3.50;99.90
18191;DHT22;47004;51.366;12.348;2023-03-01T05:49:14;-3.20;99.90
18191;DHT22;47004;51.366;12.348;2023-03-01T05:51:16;-3.80;99.90
18191;DHT22;47004;51.366;12.348;2023-03-01T05:53:20;-3.50;99.90
18191;DHT22;47004;51.366;12.348;2023-03-01T05:55:22;-3.60;99.90
18191;DHT22;47004;51.366;12.348;2023-03-01T05:57:24;-3.60;99.90
18191;DHT22;47004;51.366;12.348;2023-03-01T05:59:26;-3.60;99.90
18191;DHT22;47004;51.366;12.348;2023-03-01T06:01:29;-3.60;99.90
18191;DHT22;47004;51.366;12.348;2023-03-01T06:03:33;-3.60;99.90
18191;DHT22;47004;51.366;12.348;2023-03-01T06:05:35;-3.70;99.90
18191;DHT22;47004;51.366;12.348;2023-03-01T06:07:37;-3.70;99.90
18191;DHT22;47004;51.366;12.348;2023-03-01T06:09:39;-3.60;99.90
18191;DHT22;47004;51.366;12.348;2023-03-01T06:11:41;-3.70;99.90
18191;DHT22;47004;51.366;12.348;2023-03-01T06:13:43;-3.70;99.90
18191;DHT22;47004;51.366;12.348;2023-03-01T06:15:45;-3.60;99.90
18191;DHT22;47004;51.366;12.348;2023-03-01T06:17:48;-3.70;99.90
18191;DHT22;47004;51.366;12.348;2023-03-01T06:19:50;-3.60;99.90
18191;DHT22;47004;51.366;12.348;2023-03-01T06:21:52;-3.60;99.90
18191;DHT22;47004;51.366;12.348;2023-03-01T06:23:54;-3.70;99.90
18191;DHT22;47004;51.366;12.348;2023-03-01T06:25:56;-3.70;99.90
18191;DHT22;47004;51.366;12.348;2023-03-01T06:27:58;-3.60;99.90
18191;DHT22;47004;51.366;12.348;2023-03-01T06:30:00;-3.60;99.90
18191;DHT22;47004;51.366;12.348;2023-03-01T06:32:02;-3.60;99.90
18191;DHT22;47004;51.366;12.348;2023-03-01T06:34:06;-3.60;99.90
18191;DHT22;47004;51.366;12.348;2023-03-01T06:36:08;-3.60;99.90
18191;DHT22;47004;51.366;12.348;2023-03-01T06:38:11;-3.60;99.90
18191;DHT22;47004;51.366;12.348;2023-03-01T06:40:15;-3.60;99.90
18191;DHT22;47004;51.366;12.348;2023-03-01T06:42:17;-3.60;99.90
18191;DHT22;47004;51.366;12.348;2023-03-01T06:44:19;-3.60;99.90
18191;DHT22;47004;51.366;12.348;2023-03-01T06:46:21;-3.50;99.90
18191;DHT22;47004;51.366;12.348;2023-03-01T06:48:23;-3.50;99.90
18191;DHT22;47004;51.366;12.348;2023-03-01T06:50:26;-3.50;99.90
18191;DHT22;47004;51.366;12.348;2023-03-01T06:52:28;-3.50;99.90
18191;DHT22;47004;51.366;12.348;2023-03-01T06:54:31;-3.50;99.90
18191;DHT22;47004;51.366;12.348;2023-03-01T06:56:33;-3.50;99.90
18191;DHT22;47004;51.366;12.348;2023-03-01T06:58:35;-3.40;99.90
18191;DHT22;47004;51.366;12.348;2023-03-01T07:00:37;-3.40;99.90
18191;DHT22;47004;51.366;12.348;2023-03-01T07:02:42;-3.40;99.90
18191;DHT22;47004;51.366;12.348;2023-03-01T07:04:44;-3.40;99.90
18191;DHT22;47004;51.366;12.348;2023-03-01T07:06:47;-3.40;99.90
18191;DHT22;47004;51.366;12.348;2023-03-01T07:08:55;-3.40;99.90
18191;DHT22;47004;51.366;12.348;2023-03-01T07:10:58;-3.30;99.90
18191;DHT22;47004;51.366;12.348;2023-03-01T07:13:02;-3.30;99.90
18191;DHT22;47004;51.366;12.348;2023-03-01T07:15:05;-3.40;99.90
18191;DHT22;47004;51.366;12.348;2023-03-01T07:17:09;-3.30;99.90
18191;DHT22;47004;51.366;12.348;2023-03-01T07:19:11;-3.30;99.90
18191;DHT22;47004;51.366;12.348;2023-03-01T07:21:14;-3.30;99.90
18191;DHT22;47004;51.366;12.348;2023-03-01T07:23:18;-3.20;99.90
18191;DHT22;47004;51.366;12.348;2023-03-01T07:25:20;-3.30;99.90
18191;DHT22;47004;51.366;12.348;2023-03-01T07:27:22;-3.20;99.90
18191;DHT22;47004;51.366;12.348;2023-03-01T07:29:26;-3.20;99.90
18191;DHT22;47004;51.366;12.348;2023-03-01T07:31:29;-3.10;99.90
18191;DHT22;47004;51.366;12.348;2023-03-01T07:33:31;-3.10;99.90
18191;DHT22;47004;51.366;12.348;2023-03-01T07:35:33;-3.10;99.90
18191;DHT22;47004;51.366;12.348;2023-03-01T07:37:35;-3.10;99.90
18191;DHT22;47004;51.366;12.348;2023-03-01T07:39:38;-3.00;99.90
18191;DHT22;47004;51.366;12.348;2023-03-01T07:41:40;-3.00;99.90
18191;DHT22;47004;51.366;12.348;2023-03-01T07:43:42;-3.00;99.90
18191;DHT22;47004;51.366;12.348;2023-03-01T07:45:44;-2.90;99.90
18191;DHT22;47004;51.366;12.348;2023-03-01T07:47:46;-2.90;99.90
18191;DHT22;47004;51.366;12.348;2023-03-01T07:49:47;-2.90;99.90
18191;DHT22;47004;51.366;12.348;2023-03-01T07:51:49;-2.90;99.90
18191;DHT22;47004;51.366;12.348;2023-03-01T07:53:51;-2.80;99.90
18191;DHT22;47004;51.366;12.348;2023-03-01T07:56:02;-2.80;99.90
18191;DHT22;47004;51.366;12.348;2023-03-01T07:58:04;-2.70;99.90
18191;DHT22;47004;51.366;12.348;2023-03-01T08:00:07;-2.70;99.90
18191;DHT22;47004;51.366;12.348;2023-03-01T08:02:10;-2.70;99.90
18191;DHT22;47004;51.366;12.348;2023-03-01T08:04:12;-2.70;99.90
18191;DHT22;47004;51.366;12.348;2023-03-01T08:06:16;-2.60;99.90
18191;DHT22;47004;51.366;12.348;2023-03-01T08:08:18;-2.50;99.90
18191;DHT22;47004;51.366;12.348;2023-03-01T08:10:20;-2.50;99.90
18191;DHT22;47004;51.366;12.348;2023-03-01T08:12:23;-2.50;99.90
18191;DHT22;47004;51.366;12.348;2023-03-01T08:14:25;-2.40;99.90
18191;DHT22;47004;51.366;12.348;2023-03-01T08:16:27;-2.40;99.90
18191;DHT22;47004;51.366;12.348;2023-03-01T08:18:29;-2.40;99.90
18191;DHT22;47004;51.366;12.348;2023-03-01T08:20:31;-2.30;99.90
18191;DHT22;47004;51.366;12.348;2023-03-01T08:22:33;-2.30;99.90
18191;DHT22;47004;51.366;12.348;2023-03-01T08:24:35;-2.20;99.90
18191;DHT22;47004;51.366;12.348;2023-03-01T08:26:37;-2.20;99.90
18191;DHT22;47004;51.366;12.348;2023-03-01T08:28:41;-2.20;99.90
18191;DHT22;47004;51.366;12.348;2023-03-01T08:30:43;-2.10;99.90
18191;DHT22;47004;51.366;12.348;2023-03-01T08:32:45;-2.00;99.90
18191;DHT22;47004;51.366;12.348;2023-03-01T08:34:47;-2.00;99.90
18191;DHT22;47004;51.366;12.348;2023-03-01T08:36:49;-2.00;99.90
18191;DHT22;47004;51.366;12.348;2023-03-01T08:38:52;-1.90;99.90
18191;DHT22;47004;51.366;12.348;2023-03-01T08:40:55;-1.90;99.90
18191;DHT22;47004;51.366;12.348;2023-03-01T08:42:58;-1.80;99.90
18191;DHT22;47004;51.366;12.348;2023-03-01T08:45:02;-1.70;99.90
18191;DHT22;47004;51.366;12.348;2023-03-01T08:47:04;-1.70;99.90
18191;DHT22;47004;51.366;12.348;2023-03-01T08:49:06;-1.60;99.90
18191;DHT22;47004;51.366;12.348;2023-03-01T08:51:09;-1.60;99.90
18191;DHT22;47004;51.366;12.348;2023-03-01T08:53:11;-1.50;99.90
18191;DHT22;47004;51.366;12.348;2023-03-01T08:55:13;-1.50;99.90
18191;DHT22;47004;51.366;12.348;2023-03-01T08:57:16;-1.40;99.90
18191;DHT22;47004;51.366;12.348;2023-03-01T08:59:18;-1.40;99.90
18191;DHT22;47004;51.366;12.348;2023-03-01T09:01:22;-1.30;99.90
18191;DHT22;47004;51.366;12.348;2023-03-01T09:03:24;-1.20;99.90
18191;DHT22;47004;51.366;12.348;2023-03-01T09:05:26;-1.10;99.90
18191;DHT22;47004;51.366;12.348;2023-03-01T09:07:28;-1.10;99.90
18191;DHT22;47004;51.366;12.348;2023-03-01T09:09:30;-1.00;99.90
18191;DHT22;47004;51.366;12.348;2023-03-01T09:11:32;-1.00;99.90
18191;DHT22;47004;51.366;12.348;2023-03-01T09:13:34;-0.80;99.90
18191;DHT22;47004;51.366;12.348;2023-03-01T09:15:38;-0.80;99.90
18191;DHT22;47004;51.366;12.348;2023-03-01T09:17:41;-0.80;99.90
18191;DHT22;47004;51.366;12.348;2023-03-01T09:19:43;-0.70;99.90
18191;DHT22;47004;51.366;12.348;2023-03-01T09:21:45;-0.60;99.90
18191;DHT22;47004;51.366;12.348;2023-03-01T09:23:52;-0.50;99.90
18191;DHT22;47004;51.366;12.348;2023-03-01T09:25:54;-0.40;99.90
18191;DHT22;47004;51.366;12.348;2023-03-01T09:27:56;-0.30;99.90
18191;DHT22;47004;51.366;12.348;2023-03-01T09:29:58;-0.20;99.90
18191;DHT22;47004;51.366;12.348;2023-03-01T09:32:00;-0.20;99.90
18191;DHT22;47004;51.366;12.348;2023-03-01T09:34:03;-0.20;99.90
18191;DHT22;47004;51.366;12.348;2023-03-01T09:36:07;-0.10;99.90
18191;DHT22;47004;51.366;12.348;2023-03-01T09:38:11;0.00;99.90
18191;DHT22;47004;51.366;12.348;2023-03-01T09:40:18;0.10;99.90
18191;DHT22;47004;51.366;12.348;2023-03-01T09:42:21;0.10;99.90
18191;DHT22;47004;51.366;12.348;2023-03-01T09:44:34;0.10;99.90
18191;DHT22;47004;51.366;12.348;2023-03-01T09:46:41;0.20;99.90
18191;DHT22;47004;51.366;12.348;2023-03-01T09:48:50;0.20;99.90
18191;DHT22;47004;51.366;12.348;2023-03-01T09:50:56;0.30;99.90
18191;DHT22;47004;51.366;12.348;2023-03-01T09:53:01;0.40;99.90
18191;DHT22;47004;51.366;12.348;2023-03-01T09:55:09;0.40;99.90
18191;DHT22;47004;51.366;12.348;2023-03-01T09:57:19;0.50;99.90
18191;DHT22;47004;51.366;12.348;2023-03-01T09:59:26;0.60;99.90
18191;DHT22;47004;51.366;12.348;2023-03-01T10:01:33;0.60;99.90
18191;DHT22;47004;51.366;12.348;2023-03-01T10:03:39;0.70;99.90
18191;DHT22;47004;51.366;12.348;2023-03-01T10:05:49;0.70;99.90
18191;DHT22;47004;51.366;12.348;2023-03-01T10:08:06;0.80;99.90
18191;DHT22;47004;51.366;12.348;2023-03-01T10:10:26;0.90;99.90
18191;DHT22;47004;51.366;12.348;2023-03-01T10:12:34;1.00;99.90
18191;DHT22;47004;51.366;12.348;2023-03-01T10:14:40;1.00;99.90
18191;DHT22;47004;51.366;12.348;2023-03-01T10:16:50;1.10;99.90
18191;DHT22;47004;51.366;12.348;2023-03-01T10:18:58;1.20;99.90
18191;DHT22;47004;51.366;12.348;2023-03-01T10:21:02;1.40;99.90
18191;DHT22;47004;51.366;12.348;2023-03-01T10:23:08;1.40;99.90
18191;DHT22;47004;51.366;12.348;2023-03-01T10:25:13;1.50;99.90
18191;DHT22;47004;51.366;12.348;2023-03-01T10:27:19;1.60;99.90
18191;DHT22;47004;51.366;12.348;2023-03-01T10:29:29;1.60;99.90
18191;DHT22;47004;51.366;12.348;2023-03-01T10:31:39;1.70;99.90
18191;DHT22;47004;51.366;12.348;2023-03-01T10:33:43;1.70;99.90
18191;DHT22;47004;51.366;12.348;2023-03-01T10:35:45;1.80;99.90
18191;DHT22;47004;51.366;12.348;2023-03-01T10:37:57;1.80;99.90
18191;DHT22;47004;51.366;12.348;2023-03-01T10:40:05;1.90;99.90
18191;DHT22;47004;51.366;12.348;2023-03-01T10:42:23;1.90;99.90
18191;DHT22;47004;51.366;12.348;2023-03-01T10:44:39;2.00;99.90
18191;DHT22;47004;51.366;12.348;2023-03-01T10:46:42;2.10;99.90
18191;DHT22;47004;51.366;12.348;2023-03-01T10:48:43;2.20;99.90
18191;DHT22;47004;51.366;12.348;2023-03-01T10:50:47;2.30;99.90
18191;DHT22;47004;51.366;12.348;2023-03-01T10:53:00;2.30;99.90
18191;DHT22;47004;51.366;12.348;2023-03-01T10:55:24;2.40;99.90
18191;DHT22;47004;51.366;12.348;2023-03-01T10:57:32;2.60;99.90
18191;DHT22;47004;51.366;12.348;2023-03-01T10:59:38;2.60;99.90
18191;DHT22;47004;51.366;12.348;2023-03-01T11:01:40;2.70;99.90
18191;DHT22;47004;51.366;12.348;2023-03-01T11:03:42;2.90;99.90
18191;DHT22;47004;51.366;12.348;2023-03-01T11:06:00;3.00;99.90
18191;DHT22;47004;51.366;12.348;2023-03-01T11:08:03;3.10;99.90
18191;DHT22;47004;51.366;12.348;2023-03-01T11:10:17;3.20;99.90
18191;DHT22;47004;51.366;12.348;2023-03-01T11:12:20;3.30;99.90
18191;DHT22;47004;51.366;12.348;2023-03-01T11:14:26;3.50;99.90
18191;DHT22;47004;51.366;12.348;2023-03-01T11:16:34;3.50;99.90
18191;DHT22;47004;51.366;12.348;2023-03-01T11:18:36;3.70;99.90
18191;DHT22;47004;51.366;12.348;2023-03-01T11:20:38;3.80;99.90
18191;DHT22;47004;51.366;12.348;2023-03-01T11:22:45;3.90;99.90
18191;DHT22;47004;51.366;12.348;2023-03-01T11:24:50;4.00;99.90
18191;DHT22;47004;51.366;12.348;2023-03-01T11:26:55;4.10;99.90
18191;DHT22;47004;51.366;12.348;2023-03-01T11:29:02;4.30;99.90
18191;DHT22;47004;51.366;12.348;2023-03-01T11:31:07;4.40;99.90
18191;DHT22;47004;51.366;12.348;2023-03-01T11:33:17;4.50;99.90
18191;DHT22;47004;51.366;12.348;2023-03-01T11:35:21;4.60;99.90
18191;DHT22;47004;51.366;12.348;2023-03-01T11:37:33;4.80;99.90
18191;DHT22;47004;51.366;12.348;2023-03-01T11:39:40;5.00;99.90
18191;DHT22;47004;51.366;12.348;2023-03-01T11:41:49;5.10;99.90
18191;DHT22;47004;51.366;12.348;2023-03-01T11:43:57;5.30;99.90
18191;DHT22;47004;51.366;12.348;2023-03-01T11:46:25;5.50;99.90
18191;DHT22;47004;51.366;12.348;2023-03-01T11:48:38;5.70;99.90
18191;DHT22;47004;51.366;12.348;2023-03-01T11:50:45;5.80;99.90
18191;DHT22;47004;51.366;12.348;2023-03-01T11:53:05;6.00;99.90
18191;DHT22;47004;51.366;12.348;2023-03-01T11:55:29;6.20;99.90
18191;DHT22;47004;51.366;12.348;2023-03-01T11:57:46;6.40;99.90
18191;DHT22;47004;51.366;12.348;2023-03-01T11:59:59;6.60;99.90
18191;DHT22;47004;51.366;12.348;2023-03-01T12:05:17;7.00;99.90
18191;DHT22;47004;51.366;12.348;2023-03-01T12:07:27;7.40;99.90
18191;DHT22;47004;51.366;12.348;2023-03-01T12:09:49;7.60;99.90
18191;DHT22;47004;51.366;12.348;2023-03-01T12:12:08;7.80;99.90
18191;DHT22;47004;51.366;12.348;2023-03-01T12:14:40;8.10;99.90
18191;DHT22;47004;51.366;12.348;2023-03-01T12:19:28;8.80;99.90
18191;DHT22;47004;51.366;12.348;2023-03-01T12:21:42;9.10;91.50
18191;DHT22;47004;51.366;12.348;2023-03-01T12:26:31;9.70;85.80
18191;DHT22;47004;51.366;12.348;2023-03-01T12:28:44;10.00;64.60
18191;DHT22;47004;51.366;12.348;2023-03-01T12:31:08;10.20;89.50
18191;DHT22;47004;51.366;12.348;2023-03-01T12:33:22;10.50;66.40
18191;DHT22;47004;51.366;12.348;2023-03-01T12:35:36;10.80;97.90
18191;DHT22;47004;51.366;12.348;2023-03-01T12:37:51;11.00;59.60
18191;DHT22;47004;51.366;12.348;2023-03-01T12:40:13;11.20;53.70
18191;DHT22;47004;51.366;12.348;2023-03-01T12:42:26;11.40;52.80
18191;DHT22;47004;51.366;12.348;2023-03-01T12:44:47;11.70;53.00
18191;DHT22;47004;51.366;12.348;2023-03-01T12:47:05;11.90;49.50
18191;DHT22;47004;51.366;12.348;2023-03-01T12:49:13;12.20;49.90
18191;DHT22;47004;51.366;12.348;2023-03-01T12:51:19;12.40;49.40
18191;DHT22;47004;51.366;12.348;2023-03-01T12:53:24;12.70;50.00
18191;DHT22;47004;51.366;12.348;2023-03-01T12:55:29;12.90;49.40
18191;DHT22;47004;51.366;12.348;2023-03-01T12:57:37;13.10;46.90
18191;DHT22;47004;51.366;12.348;2023-03-01T12:59:43;13.40;51.30
18191;DHT22;47004;51.366;12.348;2023-03-01T13:01:55;13.50;45.80
18191;DHT22;47004;51.366;12.348;2023-03-01T13:04:17;13.80;46.40
18191;DHT22;47004;51.366;12.348;2023-03-01T13:06:25;13.90;44.20
18191;DHT22;47004;51.366;12.348;2023-03-01T13:08:35;14.00;44.60